Ackerly, Texas
Current Conditions -  °F | °C
As of 9:15 PM on Tuesday 21 Oct 2014 (Local Time) from KBPG Reporting Station
Scattered Clouds Scattered Clouds  
Wind Chill: 20°   Ceiling: Unl
Heat Index: 20°   Visibility: 10mi
Dew Point: 11°   Wind: 6mph
Humidity: 55%   Direction: 80°E
Pressure: 30.08"   Gusts: NA
Location:  32.53°N, 101.72°W
Report Text: KBPG 220215Z AUTO 08005KT 10SM SCT075 20/11 A3008 RMK AO2 T02000108
Loading
Personal Weather Stations






























Interactive Weather Map
Tropical Storm Tracking
New forecast layout! Learn more

10-Day Weather Forecast

Advertisements
Track Severe Weather on mobile